Memphis, Nebraska
Current Conditions -  °F | °C
As of 7:55 AM on Saturday 22 Nov 2014 (Local Time) from KAHQ Reporting Station
Haze Haze  
Wind Chill: 31°   Ceiling: 400
Heat Index: 38°   Visibility: 1.5mi
Dew Point: 36°   Wind: 9mph
Humidity: 92%   Direction: 190°S
Pressure: 29.84"   Gusts: NA
Location:  41.1°N, 96.43°W
Report Text: KAHQ 221355Z AUTO 19008KT 1 1/2SM BR OVC004 03/02 A2984 RMK AO2 T00320020
Loading
Personal Weather Stations






























Interactive Weather Map New forecast layout! Learn more

10-Day Weather Forecast

Advertisements
Track Severe Weather on mobile